createdAt,value
2023-02-24T00:00:32.194Z,14.10
2023-02-24T00:03:05.721Z,13.70
2023-02-24T00:05:39.220Z,16.00
2023-02-24T00:08:07.603Z,15.93
2023-02-24T00:10:37.772Z,15.07
2023-02-24T00:13:05.715Z,13.37
2023-02-24T00:15:35.216Z,14.50
2023-02-24T00:18:07.026Z,16.03
2023-02-24T00:20:35.760Z,14.87
2023-02-24T00:23:04.094Z,14.30
2023-02-24T00:25:32.017Z,14.00
2023-02-24T00:28:01.780Z,12.70
2023-02-24T00:30:31.555Z,11.70
2023-02-24T00:33:02.510Z,12.93
2023-02-24T00:35:31.966Z,12.70
2023-02-24T00:38:00.723Z,13.80
2023-02-24T00:40:30.716Z,12.23
2023-02-24T00:43:00.732Z,12.63
2023-02-24T00:45:30.826Z,13.13
2023-02-24T00:48:00.184Z,12.67
2023-02-24T00:50:28.111Z,12.50
2023-02-24T00:52:56.044Z,11.50
2023-02-24T00:55:24.222Z,12.40
2023-02-24T00:57:54.544Z,10.77
2023-02-24T01:00:23.414Z,11.40
2023-02-24T01:02:51.301Z,11.73
2023-02-24T01:05:21.217Z,12.37
2023-02-24T01:07:49.119Z,11.33
2023-02-24T01:10:18.243Z,11.50
2023-02-24T01:12:53.935Z,12.37
2023-02-24T01:15:23.354Z,11.47
2023-02-24T01:17:51.340Z,11.77
2023-02-24T01:20:20.880Z,11.00
2023-02-24T01:22:51.215Z,11.40
2023-02-24T01:25:20.304Z,10.77
2023-02-24T01:27:48.820Z,11.80
2023-02-24T01:30:16.955Z,12.10
2023-02-24T01:32:46.653Z,11.77
2023-02-24T01:35:15.001Z,10.67
2023-02-24T01:37:45.239Z,12.50
2023-02-24T01:40:20.960Z,12.60
2023-02-24T01:42:49.368Z,11.70
2023-02-24T01:45:24.737Z,12.03
2023-02-24T01:47:54.435Z,11.77
2023-02-24T01:50:26.088Z,10.90
2023-02-24T01:52:59.768Z,12.93
2023-02-24T01:55:32.209Z,12.50
2023-02-24T01:58:02.968Z,12.40
2023-02-24T02:00:37.771Z,12.57
2023-02-24T02:03:15.347Z,11.77
2023-02-24T02:05:45.149Z,11.80
2023-02-24T02:08:16.733Z,11.83
2023-02-24T02:10:45.618Z,11.63
2023-02-24T02:13:16.584Z,11.83
2023-02-24T02:15:53.777Z,12.97
2023-02-24T02:18:33.295Z,13.10
2023-02-24T02:21:32.650Z,12.67
2023-02-24T02:24:24.621Z,12.60
2023-02-24T02:27:29.499Z,12.03
2023-02-24T02:30:24.904Z,12.57
2023-02-24T02:33:44.221Z,13.20
2023-02-24T02:36:23.570Z,12.10
2023-02-24T02:38:57.540Z,12.03
2023-02-24T02:41:31.638Z,11.40
2023-02-24T02:44:08.605Z,12.83
2023-02-24T02:46:43.388Z,13.43
2023-02-24T02:49:17.570Z,12.83
2023-02-24T02:51:52.740Z,12.70
2023-02-24T02:54:30.410Z,12.97
2023-02-24T02:57:03.186Z,12.50
2023-02-24T02:59:35.896Z,12.80
2023-02-24T03:02:14.720Z,13.53
2023-02-24T03:04:48.559Z,12.23
2023-02-24T03:07:20.309Z,12.03
2023-02-24T03:09:52.772Z,12.57
2023-02-24T03:12:23.991Z,12.77
2023-02-24T03:14:59.417Z,13.00
2023-02-24T03:17:31.691Z,12.40
2023-02-24T03:20:15.542Z,14.70
2023-02-24T03:22:49.876Z,13.20
2023-02-24T03:25:24.155Z,13.30
2023-02-24T03:27:57.019Z,14.73
2023-02-24T03:30:30.198Z,14.10
2023-02-24T03:33:05.608Z,15.70
2023-02-24T03:35:38.329Z,14.07
2023-02-24T03:38:10.154Z,14.20
2023-02-24T03:40:39.197Z,13.87
2023-02-24T03:43:16.916Z,14.23
2023-02-24T03:45:46.639Z,14.10
2023-02-24T03:48:16.145Z,14.53
2023-02-24T03:50:47.022Z,16.07
2023-02-24T03:53:42.354Z,15.30
2023-02-24T03:56:22.422Z,14.30
2023-02-24T03:59:00.395Z,15.67
2023-02-24T04:01:37.646Z,15.30
2023-02-24T04:04:13.892Z,16.10
2023-02-24T04:06:56.469Z,15.00
2023-02-24T04:09:33.174Z,14.83
2023-02-24T04:12:13.920Z,14.47
2023-02-24T04:14:50.091Z,14.70
2023-02-24T04:17:21.843Z,14.50
2023-02-24T04:19:54.203Z,15.50
2023-02-24T04:22:25.123Z,15.67
2023-02-24T04:24:59.654Z,14.47
2023-02-24T04:27:29.188Z,15.70
2023-02-24T04:30:11.691Z,14.53
2023-02-24T04:32:42.814Z,16.13
2023-02-24T04:35:16.709Z,14.13
2023-02-24T04:37:50.462Z,15.13
2023-02-24T04:40:22.954Z,14.33
2023-02-24T04:42:52.780Z,14.03
2023-02-24T04:45:23.268Z,11.97
2023-02-24T04:47:56.284Z,14.60
2023-02-24T04:50:26.100Z,16.63
2023-02-24T04:52:55.967Z,17.07
2023-02-24T04:55:29.374Z,17.37
2023-02-24T04:57:58.060Z,18.07
2023-02-24T05:00:26.973Z,16.53
2023-02-24T05:02:56.431Z,17.47
2023-02-24T05:05:27.398Z,17.20
2023-02-24T05:07:56.195Z,15.80
2023-02-24T05:10:27.832Z,18.90
2023-02-24T05:12:58.259Z,23.27
2023-02-24T05:15:31.298Z,20.57
2023-02-24T05:18:00.944Z,16.93
2023-02-24T05:20:46.691Z,15.30
2023-02-24T05:23:16.893Z,17.40
2023-02-24T05:25:46.387Z,18.33
2023-02-24T05:28:14.361Z,17.33
2023-02-24T05:30:42.330Z,18.90
2023-02-24T05:33:10.598Z,20.07
2023-02-24T05:35:38.652Z,18.20
2023-02-24T05:38:08.228Z,16.90
2023-02-24T05:40:36.156Z,20.20
2023-02-24T05:43:05.717Z,18.10
2023-02-24T05:45:34.267Z,18.83
2023-02-24T05:48:02.316Z,16.00
2023-02-24T05:50:32.187Z,16.03
2023-02-24T05:53:00.093Z,17.40
2023-02-24T05:55:27.944Z,17.70
2023-02-24T05:57:56.683Z,16.50
2023-02-24T06:00:26.125Z,21.10
2023-02-24T06:02:54.047Z,19.80
2023-02-24T06:05:27.828Z,17.07
2023-02-24T06:08:04.745Z,16.37
2023-02-24T06:10:34.570Z,16.90
2023-02-24T06:13:02.989Z,18.17
2023-02-24T06:15:32.462Z,17.90
2023-02-24T06:18:01.986Z,17.10
2023-02-24T06:20:32.978Z,18.37
2023-02-24T06:23:02.048Z,18.83
2023-02-24T06:25:30.010Z,16.83
2023-02-24T06:28:01.747Z,17.30
2023-02-24T06:30:29.868Z,18.50
2023-02-24T06:32:59.171Z,17.70
2023-02-24T06:35:27.344Z,17.60
2023-02-24T06:37:55.885Z,16.80
2023-02-24T06:40:24.493Z,16.60
2023-02-24T06:42:55.025Z,17.60
2023-02-24T06:45:24.403Z,16.90
2023-02-24T06:47:52.257Z,19.13
2023-02-24T06:50:21.935Z,18.83
2023-02-24T06:52:53.179Z,18.20
2023-02-24T06:55:26.999Z,18.17
2023-02-24T06:57:57.919Z,15.73
2023-02-24T07:00:37.080Z,16.37
2023-02-24T07:03:14.859Z,16.20
2023-02-24T07:05:50.286Z,15.73
2023-02-24T07:08:21.089Z,15.10
2023-02-24T07:10:54.699Z,16.63
2023-02-24T07:13:24.287Z,14.83
2023-02-24T07:15:52.286Z,16.30
2023-02-24T07:18:20.622Z,16.33
2023-02-24T07:20:49.813Z,15.93
2023-02-24T07:23:17.992Z,15.93
2023-02-24T07:25:46.545Z,15.27
2023-02-24T07:28:14.857Z,15.20
2023-02-24T07:30:43.463Z,17.57
2023-02-24T07:33:11.945Z,16.20
2023-02-24T07:35:41.546Z,16.37
2023-02-24T07:38:11.008Z,16.37
2023-02-24T07:40:40.323Z,16.30
2023-02-24T07:43:08.426Z,16.60
2023-02-24T07:45:36.255Z,18.80
2023-02-24T07:48:04.539Z,17.20
2023-02-24T07:50:32.712Z,20.97
2023-02-24T07:53:05.610Z,19.10
2023-02-24T07:55:37.001Z,18.53
2023-02-24T07:58:05.994Z,18.00
2023-02-24T08:00:50.128Z,18.30
2023-02-24T08:03:18.115Z,18.70
2023-02-24T08:05:46.042Z,21.20
2023-02-24T08:08:20.833Z,20.13
2023-02-24T08:10:50.107Z,18.73
2023-02-24T08:13:19.157Z,18.87
2023-02-24T08:15:56.446Z,18.60
2023-02-24T08:18:24.753Z,19.30
2023-02-24T08:20:53.480Z,19.30
2023-02-24T08:23:23.404Z,19.73
2023-02-24T08:25:53.800Z,18.43
2023-02-24T08:28:26.886Z,18.90
2023-02-24T08:30:54.946Z,18.73
2023-02-24T08:33:23.638Z,18.33
2023-02-24T08:36:01.726Z,18.13
2023-02-24T08:38:41.761Z,18.43
2023-02-24T08:41:19.982Z,17.37
2023-02-24T08:43:49.668Z,19.07
2023-02-24T08:46:26.387Z,19.07
2023-02-24T08:48:56.726Z,18.37
2023-02-24T08:51:28.821Z,18.47
2023-02-24T08:54:00.416Z,17.30
2023-02-24T08:56:34.472Z,19.67
2023-02-24T08:59:06.329Z,18.07
2023-02-24T09:01:36.841Z,19.37
2023-02-24T09:04:08.371Z,19.90
2023-02-24T09:06:40.982Z,20.60
2023-02-24T09:09:18.376Z,21.10
2023-02-24T09:11:49.441Z,21.43
2023-02-24T09:14:27.477Z,20.17
2023-02-24T09:17:05.488Z,18.83
2023-02-24T09:19:55.814Z,19.13
2023-02-24T09:22:42.631Z,18.33
2023-02-24T09:25:24.031Z,19.43
2023-02-24T09:28:07.838Z,18.90
2023-02-24T09:30:37.908Z,20.47
2023-02-24T09:33:18.105Z,20.70
2023-02-24T09:35:47.888Z,19.50
2023-02-24T09:38:17.125Z,18.50
2023-02-24T09:40:52.068Z,19.43
2023-02-24T09:43:24.893Z,21.80
2023-02-24T09:46:02.315Z,18.87
2023-02-24T09:48:43.787Z,18.47
2023-02-24T09:51:22.748Z,18.80
2023-02-24T09:53:56.881Z,18.10
2023-02-24T09:56:37.161Z,19.57
2023-02-24T09:59:14.886Z,21.30
2023-02-24T10:01:52.629Z,19.53
2023-02-24T10:04:36.253Z,20.23
2023-02-24T10:07:07.647Z,19.20
2023-02-24T10:09:39.287Z,20.40
2023-02-24T10:12:13.758Z,19.10
2023-02-24T10:14:53.206Z,19.23
2023-02-24T10:17:30.505Z,19.23
2023-02-24T10:20:02.482Z,20.40
2023-02-24T10:22:50.310Z,19.53
2023-02-24T10:25:36.114Z,19.80
2023-02-24T10:28:12.988Z,20.40
2023-02-24T10:31:01.452Z,19.47
2023-02-24T10:33:37.878Z,21.23
2023-02-24T10:36:09.316Z,20.27
2023-02-24T10:38:40.794Z,21.70
2023-02-24T10:41:11.129Z,21.07
2023-02-24T10:43:46.134Z,20.70
2023-02-24T10:46:40.218Z,20.43
2023-02-24T10:49:16.551Z,20.23
2023-02-24T10:51:52.369Z,20.23
2023-02-24T10:54:34.384Z,21.07
2023-02-24T10:57:18.488Z,21.43
2023-02-24T11:00:19.569Z,20.90
2023-02-24T11:03:07.171Z,21.10
2023-02-24T11:05:44.347Z,21.00
2023-02-24T11:08:36.709Z,21.90
2023-02-24T11:11:20.257Z,20.40
2023-02-24T11:14:09.310Z,20.67
2023-02-24T11:17:06.860Z,21.70
2023-02-24T11:19:43.951Z,22.30
2023-02-24T11:22:16.195Z,23.20
2023-02-24T11:24:46.719Z,22.60
2023-02-24T11:27:17.353Z,23.13
2023-02-24T11:30:15.032Z,22.80
2023-02-24T11:33:17.345Z,21.50
2023-02-24T11:35:58.018Z,23.87
2023-02-24T11:38:35.629Z,23.03
2023-02-24T11:41:11.619Z,21.10
2023-02-24T11:43:44.026Z,23.53
2023-02-24T11:46:16.952Z,22.73
2023-02-24T11:48:48.681Z,21.80
2023-02-24T11:51:21.250Z,20.77
2023-02-24T11:53:53.236Z,22.40
2023-02-24T11:56:27.180Z,23.70
2023-02-24T11:59:02.603Z,24.10
2023-02-24T12:01:36.324Z,24.90
2023-02-24T12:04:13.705Z,25.73
2023-02-24T12:06:51.866Z,23.83
2023-02-24T12:09:24.418Z,23.23
2023-02-24T12:11:56.388Z,23.27
2023-02-24T12:14:31.587Z,25.37
2023-02-24T12:17:07.711Z,23.63
2023-02-24T12:19:42.307Z,24.80
2023-02-24T12:22:16.188Z,23.70
2023-02-24T12:24:49.935Z,24.23
2023-02-24T12:27:32.472Z,24.90
2023-02-24T12:30:22.795Z,23.27
2023-02-24T12:33:01.753Z,21.70
2023-02-24T12:35:40.549Z,23.17
2023-02-24T12:38:24.663Z,24.20
2023-02-24T12:40:59.315Z,24.03
2023-02-24T12:43:34.740Z,26.10
2023-02-24T12:46:07.115Z,25.17
2023-02-24T12:48:58.379Z,24.60
2023-02-24T12:51:33.898Z,26.90
2023-02-24T12:54:09.432Z,25.00
2023-02-24T12:56:47.726Z,25.30
2023-02-24T12:59:20.363Z,27.43
2023-02-24T13:01:54.983Z,27.73
2023-02-24T13:04:51.234Z,27.33
2023-02-24T13:07:36.561Z,28.97
2023-02-24T13:10:18.057Z,27.40
2023-02-24T13:12:52.807Z,26.50
2023-02-24T13:15:23.285Z,27.00
2023-02-24T13:17:52.921Z,24.87
2023-02-24T13:20:32.631Z,25.37
2023-02-24T13:23:03.503Z,26.87
2023-02-24T13:25:36.958Z,27.60
2023-02-24T13:28:07.763Z,24.37
2023-02-24T13:30:43.397Z,25.37
2023-02-24T13:33:29.053Z,24.87
2023-02-24T13:36:12.779Z,26.80
2023-02-24T13:38:42.611Z,26.60
2023-02-24T13:41:22.951Z,25.07
2023-02-24T13:43:59.624Z,25.00
2023-02-24T13:46:30.908Z,27.30
2023-02-24T13:49:14.383Z,25.67
2023-02-24T13:51:59.195Z,27.40
2023-02-24T13:54:53.975Z,26.63
2023-02-24T13:57:46.550Z,24.20
2023-02-24T14:00:25.103Z,24.20
2023-02-24T14:02:53.617Z,25.27
2023-02-24T14:05:26.403Z,25.60
2023-02-24T14:07:55.868Z,23.10
2023-02-24T14:10:27.050Z,23.47
2023-02-24T14:13:04.194Z,24.23
2023-02-24T14:15:33.509Z,25.00
2023-02-24T14:18:03.001Z,24.83
2023-02-24T14:20:33.592Z,24.23
2023-02-24T14:23:02.425Z,25.63
2023-02-24T14:25:35.523Z,24.67
2023-02-24T14:28:05.588Z,24.40
2023-02-24T14:30:36.582Z,26.10
2023-02-24T14:33:07.473Z,25.57
2023-02-24T14:35:37.810Z,25.17
2023-02-24T14:38:06.093Z,25.63
2023-02-24T14:40:34.390Z,25.33
2023-02-24T14:43:03.742Z,25.70
2023-02-24T14:45:33.013Z,24.47
2023-02-24T14:48:00.884Z,26.43
2023-02-24T14:50:33.284Z,25.73
2023-02-24T14:53:05.027Z,25.23
2023-02-24T14:55:38.121Z,26.80
2023-02-24T14:58:13.325Z,26.40
2023-02-24T15:00:49.228Z,26.23
2023-02-24T15:03:23.545Z,31.60
2023-02-24T15:05:55.571Z,29.07
2023-02-24T15:08:32.807Z,27.40
2023-02-24T15:11:01.105Z,34.50
2023-02-24T15:13:37.864Z,35.77
2023-02-24T15:16:13.653Z,29.80
2023-02-24T15:18:42.256Z,26.43
2023-02-24T15:21:21.722Z,25.67
2023-02-24T15:23:49.990Z,27.17
2023-02-24T15:26:29.850Z,27.03
2023-02-24T15:28:59.793Z,26.60
2023-02-24T15:31:30.034Z,27.10
2023-02-24T15:34:00.878Z,26.60
2023-02-24T15:36:33.133Z,26.37
2023-02-24T15:39:04.159Z,27.53
2023-02-24T15:41:43.250Z,27.97
2023-02-24T15:44:25.907Z,27.93
2023-02-24T15:46:55.676Z,27.17
2023-02-24T15:49:23.654Z,27.70
2023-02-24T15:51:53.445Z,28.17
2023-02-24T15:54:29.205Z,27.07
2023-02-24T15:56:59.406Z,29.33
2023-02-24T15:59:27.877Z,27.10
2023-02-24T16:01:57.484Z,29.47
2023-02-24T16:04:27.544Z,28.77
2023-02-24T16:06:57.861Z,29.00
2023-02-24T16:09:33.533Z,28.03
2023-02-24T16:12:04.386Z,29.40
2023-02-24T16:14:33.414Z,29.27
2023-02-24T16:17:06.944Z,27.90
2023-02-24T16:19:34.900Z,31.07
2023-02-24T16:22:02.737Z,32.27
2023-02-24T16:24:30.618Z,29.47
2023-02-24T16:26:58.544Z,29.03
2023-02-24T16:29:26.610Z,26.57
2023-02-24T16:31:54.837Z,28.07
2023-02-24T16:34:24.172Z,29.87
2023-02-24T16:36:52.070Z,26.83
2023-02-24T16:39:20.057Z,27.57
2023-02-24T16:41:47.943Z,27.63
2023-02-24T16:44:15.833Z,27.57
2023-02-24T16:46:45.642Z,32.13
2023-02-24T16:49:19.556Z,31.10
2023-02-24T16:51:48.849Z,26.57
2023-02-24T16:54:16.689Z,26.07
2023-02-24T16:56:46.451Z,25.57
2023-02-24T16:59:14.392Z,26.30
2023-02-24T17:01:42.295Z,25.97
2023-02-24T17:04:11.075Z,26.83
2023-02-24T17:06:39.154Z,25.90
2023-02-24T17:09:08.398Z,24.50
2023-02-24T17:11:36.247Z,25.67
2023-02-24T17:14:04.526Z,25.17
2023-02-24T17:16:32.659Z,29.83
2023-02-24T17:19:00.578Z,28.57
2023-02-24T17:21:28.636Z,24.87
2023-02-24T17:23:56.518Z,26.10
2023-02-24T17:26:25.832Z,25.90
2023-02-24T17:28:53.642Z,26.80
2023-02-24T17:31:22.935Z,25.80
2023-02-24T17:33:50.980Z,24.43
2023-02-24T17:36:19.524Z,25.37
2023-02-24T17:38:47.562Z,24.83
2023-02-24T17:41:15.509Z,29.33
2023-02-24T17:43:44.835Z,33.37
2023-02-24T17:46:12.831Z,30.57
2023-02-24T17:48:40.726Z,25.77
2023-02-24T17:51:08.594Z,26.40
2023-02-24T17:53:36.464Z,27.27
2023-02-24T17:56:05.654Z,27.50
2023-02-24T17:58:34.626Z,27.60
2023-02-24T18:01:05.712Z,26.60
2023-02-24T18:03:34.481Z,28.67
2023-02-24T18:06:04.842Z,28.33
2023-02-24T18:08:34.115Z,29.90
2023-02-24T18:11:02.027Z,27.30
2023-02-24T18:13:30.821Z,28.40
2023-02-24T18:15:59.359Z,29.63
2023-02-24T18:18:30.325Z,29.63
2023-02-24T18:21:02.339Z,36.30
2023-02-24T18:23:30.680Z,31.70
2023-02-24T18:26:02.320Z,30.33
2023-02-24T18:28:30.692Z,31.40
2023-02-24T18:30:58.645Z,31.53
2023-02-24T18:33:29.265Z,30.40
2023-02-24T18:35:59.676Z,33.87
2023-02-24T18:38:28.177Z,33.63
2023-02-24T18:40:59.878Z,33.13
2023-02-24T18:43:28.001Z,29.90
2023-02-24T18:46:00.572Z,27.07
2023-02-24T18:48:31.426Z,25.70
2023-02-24T18:51:00.552Z,28.50
2023-02-24T18:53:31.016Z,27.70
2023-02-24T18:56:03.303Z,29.10
2023-02-24T18:58:31.908Z,28.13
2023-02-24T19:01:00.124Z,31.97
2023-02-24T19:03:29.546Z,26.63
2023-02-24T19:05:57.351Z,28.47
2023-02-24T19:08:25.273Z,27.93
2023-02-24T19:10:53.214Z,30.57
2023-02-24T19:13:21.212Z,27.20
2023-02-24T19:15:49.437Z,27.20
2023-02-24T19:18:17.782Z,22.00
2023-02-24T19:20:46.988Z,23.80
2023-02-24T19:23:14.892Z,23.47
2023-02-24T19:25:42.862Z,21.33
2023-02-24T19:28:10.809Z,20.47
2023-02-24T19:30:39.581Z,23.13
2023-02-24T19:33:09.624Z,21.97
2023-02-24T19:35:41.759Z,24.10
2023-02-24T19:38:14.961Z,25.30
2023-02-24T19:40:43.727Z,22.83
2023-02-24T19:43:12.119Z,25.50
2023-02-24T19:45:41.775Z,26.57
2023-02-24T19:48:09.880Z,27.60
2023-02-24T19:50:40.446Z,42.83
2023-02-24T19:53:08.465Z,46.33
2023-02-24T19:55:37.713Z,44.37
2023-02-24T19:58:05.763Z,39.27
2023-02-24T20:00:33.709Z,35.60
2023-02-24T20:03:01.584Z,33.63
2023-02-24T20:05:29.409Z,27.67
2023-02-24T20:07:57.434Z,25.97
2023-02-24T20:10:25.307Z,26.47
2023-02-24T20:12:55.452Z,25.20
2023-02-24T20:15:23.353Z,25.47
2023-02-24T20:17:51.220Z,26.10
2023-02-24T20:20:19.237Z,24.10
2023-02-24T20:22:47.108Z,23.77
2023-02-24T20:25:15.327Z,21.10
2023-02-24T20:27:43.298Z,23.47
2023-02-24T20:30:14.237Z,22.13
2023-02-24T20:32:42.395Z,23.80
2023-02-24T20:35:11.401Z,22.27
2023-02-24T20:37:39.777Z,21.87
2023-02-24T20:40:09.203Z,20.33
2023-02-24T20:42:37.078Z,20.43
2023-02-24T20:45:05.359Z,19.80
2023-02-24T20:47:34.568Z,21.33
2023-02-24T20:50:03.182Z,22.23
2023-02-24T20:52:31.104Z,38.00
2023-02-24T20:54:58.958Z,30.43
2023-02-24T20:57:26.931Z,24.27
2023-02-24T21:00:03.638Z,21.00
2023-02-24T21:02:31.917Z,19.90
2023-02-24T21:05:01.214Z,21.77
2023-02-24T21:07:29.566Z,18.20
2023-02-24T21:09:57.407Z,19.70
2023-02-24T21:12:25.318Z,19.87
2023-02-24T21:14:53.248Z,19.93
2023-02-24T21:17:21.323Z,18.43
2023-02-24T21:19:49.749Z,19.47
2023-02-24T21:22:19.026Z,19.87
2023-02-24T21:24:47.106Z,19.83
2023-02-24T21:27:15.059Z,16.70
2023-02-24T21:29:42.915Z,17.40
2023-02-24T21:32:10.945Z,18.30
2023-02-24T21:34:38.832Z,18.30
2023-02-24T21:37:07.350Z,17.70
2023-02-24T21:39:36.760Z,20.27
2023-02-24T21:42:04.703Z,24.93
2023-02-24T21:44:32.750Z,37.67
2023-02-24T21:47:00.904Z,46.27
2023-02-24T21:49:30.233Z,29.90
2023-02-24T21:51:58.056Z,26.50
2023-02-24T21:54:26.868Z,30.00
2023-02-24T21:56:56.102Z,35.13
2023-02-24T21:59:23.952Z,20.53
2023-02-24T22:01:52.041Z,23.67
2023-02-24T22:04:20.170Z,23.63
2023-02-24T22:06:48.391Z,21.53
2023-02-24T22:09:19.195Z,23.20
2023-02-24T22:11:48.880Z,22.00
2023-02-24T22:14:18.486Z,24.13
2023-02-24T22:16:46.349Z,26.77
2023-02-24T22:19:14.482Z,31.63
2023-02-24T22:21:43.154Z,24.67
2023-02-24T22:24:14.278Z,23.23
2023-02-24T22:26:42.690Z,26.07
2023-02-24T22:29:10.924Z,24.27
2023-02-24T22:31:43.308Z,22.17
2023-02-24T22:34:11.443Z,19.23
2023-02-24T22:36:39.398Z,21.20
2023-02-24T22:39:09.333Z,20.87
2023-02-24T22:41:38.109Z,22.70
2023-02-24T22:44:07.150Z,21.20
2023-02-24T22:46:37.259Z,23.13
2023-02-24T22:49:07.362Z,22.77
2023-02-24T22:51:35.291Z,24.10
2023-02-24T22:54:03.386Z,23.70
2023-02-24T22:56:31.962Z,25.30
2023-02-24T22:59:00.587Z,25.50
2023-02-24T23:01:30.243Z,24.20
2023-02-24T23:04:00.309Z,25.00
2023-02-24T23:06:30.126Z,23.17
2023-02-24T23:09:00.061Z,23.93
2023-02-24T23:11:30.224Z,23.20
2023-02-24T23:14:00.220Z,24.13
2023-02-24T23:16:31.680Z,28.50
2023-02-24T23:19:01.428Z,24.80
2023-02-24T23:21:35.113Z,23.83
2023-02-24T23:24:03.991Z,24.63
2023-02-24T23:26:33.501Z,23.20
2023-02-24T23:29:01.591Z,22.10
2023-02-24T23:31:30.052Z,22.17
2023-02-24T23:33:58.048Z,23.70
2023-02-24T23:36:27.149Z,19.80
2023-02-24T23:38:57.556Z,20.90
2023-02-24T23:41:25.523Z,20.10
2023-02-24T23:43:53.670Z,19.43
2023-02-24T23:46:22.525Z,19.30
2023-02-24T23:48:52.618Z,20.60
2023-02-24T23:51:21.173Z,20.47
2023-02-24T23:53:49.415Z,21.17
2023-02-24T23:56:20.339Z,18.70
2023-02-24T23:58:51.623Z,18.97
